Decoded Metar for VHHH (HONG KONG in HONG KONG) (IATA:HKG) | Meteo·Mobile Aviation Weather
aviador You're here:

VHHH Decoded Metar

HONG KONG in HONG KONG
Report Time2018-10-17 19:30:00
UTC Time2018-10-17 20:04:54
Flight Rules mvfr MVFR
Wind030° at 05 kt
W.Decomp.*RWY 07: 3.9 kt HW 3.1 kt LCW
W.Rank030° ranks 15
Current wind is below 030° avg. (6.9)
Visibility7000 m
Phenomena:Rain
Clouds:Few 006 Hf
Scattered 022 Hf
Expected CloudBase > 400 ft AGL from Temp-Dew spread
CeilingNone
Temp21°C (ISA +6)
Dew Point20°C (94% RH)
QNH1013 hPa
Density Alt1,047 ft
Elevation30 ft
Report Wrong Elevation
Raw Report
VHHH 171930Z 03005KT 7000 RA FEW006 SCT022 21/20 Q1013 NOSIG=

Extra information for VHHH:More info

Metar Taf Metar & Taf Last 4 Metars F.Rules Stats Wind Profile Meteogram Temp Stats Airport Information Weather charts Add Link Nearby VenuesMetar ALERT Operation Metar Decoded Social comments